(°C)
20°
21°
22°
22°
22°
22°
22°
(°C)
19°
20°
21°
21°
21°
21°
21°
NNO
ONO
ONO
ONO
ONO
ONO
NO
(km/h)
7-13
8-15
8-17
8-17
8-17
8-17
9-17
(mm)
0
0
0
0
0.9
1.1
0
(%)
24
30
49
36
67
70
40

Sonnenhöhe

/ 50.8°
sun-icon
UV 3
05:44
21:12
Abnehmender Halbmond (313°)
01:22
18:47

METAR für Bordenau (ETNW)

Zeit Bedingungen Temperatur/
Taupunkt
Wind Sichtweite Wetter Wolken Druck Änderung Roh
VFR 19°C / 14°C 30º 2kt >10km - Few Clouds 2000ft 1014 - ETNW 040920Z 03002KT 9999 FEW020 SCT070 BKN120 19/14 Q1014 BLU BLU
VFR 16°C / 15°C 330º 3kt >10km - Few Clouds 800ft 1014 - ETNW 040820Z 33003KT 9999 FEW008 BKN080 16/15 Q1014 BLU BLU
VFR 15°C / 15°C 360º 2kt >10km - Few Clouds 500ft 1014 - ETNW 040720Z 36002KT 9999 FEW005 BKN055 15/15 Q1014 BLU BLU
VFR 15°C / 15°C 10º 4kt >10km - Few Clouds 500ft 1013 - ETNW 040620Z 01004KT 9999 FEW005 BKN055 BKN090 15/15 Q1013 BLU BLU
VFR 14°C / 14°C 20º 4kt >10km - Few Clouds 1000ft 1013 - ETNW 040520Z 02004KT 9999 FEW010 BKN060 14/14 Q1013 BLU BLU
VFR 14°C / 14°C 350º 2kt >10km Light Rain 1.00mm precipitation Vertical Visibility of 0ft. 1013 - ETNW 040420Z 35002KT 9999 -RA FEW025 BKN080 14/14 Q1013 BLU BLU
VFR 15°C / 14°C 340º 6kt >10km Light Showers Rain 3.00mm precipitation Vertical Visibility of 0ft. 1013 - ETNW 040320Z 34006KT 9999 -SHRA FEW020 BKN060 15/14 Q1013 BLU
VFR 15°C / 13°C 10º 3kt >10km - Broken Clouds 5000ft 1013 - ETNW 040220Z 01003KT 9999 BKN050 BKN090 15/13 Q1013 BLU
VFR 15°C / 13°C 300º 4kt >10km - Broken Clouds 5000ft 1013 - ETNW 040120Z 30004KT 9999 BKN050 BKN100 15/13 Q1013 BLU
VFR 16°C / 13°C 260º 2kt >10km - Broken Clouds 5000ft 1013 - ETNW 040020Z 26002KT 9999 BKN050 BKN100 16/13 Q1013 BLU
VFR 16°C / 13°C 310º 2kt >10km - Broken Clouds 6000ft 1013 - ETNW 032320Z 31002KT 9999 BKN060 BKN100 16/13 Q1013 BLU
VFR 16°C / 13°C variable 0kt >10km - Broken Clouds 6000ft 1013 - ETNW 032220Z 00000KT 9999 BKN060 BKN100 16/13 Q1013 BLU
VFR 16°C / 12°C 360º 4kt >10km - Broken Clouds 6000ft 1013 - ETNW 032120Z 36004KT 9999 BKN060 16/12 Q1013 BLU
VFR 17°C / 12°C variable 0kt >10km - Broken Clouds 6000ft 1013 - ETNW 032020Z 00000KT 9999 BKN060 17/12 Q1013 BLU
VFR 17°C / 12°C 30º 4kt >10km - Few Clouds 4000ft 1012 - ETNW 031920Z 03004KT 9999 FEW040 BKN060 17/12 Q1012 BLU
VFR 18°C / 11°C 40º 4kt >10km - Few Clouds 4200ft 1012 - ETNW 031820Z 04004KT 9999 FEW042 SCT060 BKN070 18/11 Q1012 BLU
VFR 19°C / 12°C 360º 6kt >10km - Few Clouds 4200ft 1012 - ETNW 031720Z 36006KT 9999 FEW042 BKN070 BKN100 19/12 Q1012 BLU
VFR 20°C / 11°C 360º 4kt >10km - Few Clouds 4200ft 1012 - ETNW 031620Z 36004KT 9999 FEW042 BKN060 20/11 Q1012 BLU
VFR 20°C / 10°C 360º 4kt >10km - Few Clouds 4200ft 1012 - ETNW 031520Z 36004KT 9999 FEW042 BKN060 20/10 Q1012 BLU
VFR 20°C / 10°C 20º 2kt >10km - Few Clouds 4200ft 1012 - ETNW 031500Z 02002KT 9999 FEW042 BKN060 20/10 Q1012 BLU FCST CNL
VFR 20°C / 10°C variable 3kt >10km - Few Clouds 4200ft 1012 - ETNW 031420Z VRB03KT 9999 FEW042 BKN050 20/10 Q1012 BLU BLU
VFR 20°C / 10°C 240º 5kt >10km Light Showers Rain 3.00mm precipitation Vertical Visibility of 0ft. 1012 - ETNW 031320Z 24005KT 9999 -SHRA SCT042 SCT050 BKN190 20/10 Q1012 BLU BLU
VFR 21°C / 10°C 40º 3kt >10km - Scattered Clouds 4400ft 1013 - ETNW 031220Z 04003KT 9999 SCT044 BKN190 21/10 Q1013 BLU BLU
VFR 21°C / 10°C 360º 4kt >10km - Scattered Clouds 4000ft 1013 - ETNW 031129Z 36004KT 9999 SCT040 BKN200 21/10 Q1013 BLU+BLU

VFR

19°C / 14°C

[Mehr]
Wind 30º 2kt
Sichtweite >10km
Wetter -
Wolken Few Clouds 2000ft
Druck 1014
Änderung -
Roh ETNW 040920Z 03002KT 9999 FEW020 SCT070 BKN120 19/14 Q1014 BLU BLU

VFR

16°C / 15°C

[Mehr]
Wind 330º 3kt
Sichtweite >10km
Wetter -
Wolken Few Clouds 800ft
Druck 1014
Änderung -
Roh ETNW 040820Z 33003KT 9999 FEW008 BKN080 16/15 Q1014 BLU BLU

VFR

15°C / 15°C

[Mehr]
Wind 360º 2kt
Sichtweite >10km
Wetter -
Wolken Few Clouds 500ft
Druck 1014
Änderung -
Roh ETNW 040720Z 36002KT 9999 FEW005 BKN055 15/15 Q1014 BLU BLU

VFR

15°C / 15°C

[Mehr]
Wind 10º 4kt
Sichtweite >10km
Wetter -
Wolken Few Clouds 500ft
Druck 1013
Änderung -
Roh ETNW 040620Z 01004KT 9999 FEW005 BKN055 BKN090 15/15 Q1013 BLU BLU

VFR

14°C / 14°C

[Mehr]
Wind 20º 4kt
Sichtweite >10km
Wetter -
Wolken Few Clouds 1000ft
Druck 1013
Änderung -
Roh ETNW 040520Z 02004KT 9999 FEW010 BKN060 14/14 Q1013 BLU BLU

VFR

14°C / 14°C

[Mehr]
Wind 350º 2kt
Sichtweite >10km
Wetter Light Rain 1.00mm precipitation
Wolken Vertical Visibility of 0ft.
Druck 1013
Änderung -
Roh ETNW 040420Z 35002KT 9999 -RA FEW025 BKN080 14/14 Q1013 BLU BLU

VFR

15°C / 14°C

[Mehr]
Wind 340º 6kt
Sichtweite >10km
Wetter Light Showers Rain 3.00mm precipitation
Wolken Vertical Visibility of 0ft.
Druck 1013
Änderung -
Roh ETNW 040320Z 34006KT 9999 -SHRA FEW020 BKN060 15/14 Q1013 BLU

VFR

15°C / 13°C

[Mehr]
Wind 10º 3kt
Sichtweite >10km
Wetter -
Wolken Broken Clouds 5000ft
Druck 1013
Änderung -
Roh ETNW 040220Z 01003KT 9999 BKN050 BKN090 15/13 Q1013 BLU

VFR

15°C / 13°C

[Mehr]
Wind 300º 4kt
Sichtweite >10km
Wetter -
Wolken Broken Clouds 5000ft
Druck 1013
Änderung -
Roh ETNW 040120Z 30004KT 9999 BKN050 BKN100 15/13 Q1013 BLU

VFR

16°C / 13°C

[Mehr]
Wind 260º 2kt
Sichtweite >10km
Wetter -
Wolken Broken Clouds 5000ft
Druck 1013
Änderung -
Roh ETNW 040020Z 26002KT 9999 BKN050 BKN100 16/13 Q1013 BLU

VFR

16°C / 13°C

[Mehr]
Wind 310º 2kt
Sichtweite >10km
Wetter -
Wolken Broken Clouds 6000ft
Druck 1013
Änderung -
Roh ETNW 032320Z 31002KT 9999 BKN060 BKN100 16/13 Q1013 BLU

VFR

16°C / 13°C

[Mehr]
Wind variable 0kt
Sichtweite >10km
Wetter -
Wolken Broken Clouds 6000ft
Druck 1013
Änderung -
Roh ETNW 032220Z 00000KT 9999 BKN060 BKN100 16/13 Q1013 BLU

VFR

16°C / 12°C

[Mehr]
Wind 360º 4kt
Sichtweite >10km
Wetter -
Wolken Broken Clouds 6000ft
Druck 1013
Änderung -
Roh ETNW 032120Z 36004KT 9999 BKN060 16/12 Q1013 BLU

VFR

17°C / 12°C

[Mehr]
Wind variable 0kt
Sichtweite >10km
Wetter -
Wolken Broken Clouds 6000ft
Druck 1013
Änderung -
Roh ETNW 032020Z 00000KT 9999 BKN060 17/12 Q1013 BLU

VFR

17°C / 12°C

[Mehr]
Wind 30º 4kt
Sichtweite >10km
Wetter -
Wolken Few Clouds 4000ft
Druck 1012
Änderung -
Roh ETNW 031920Z 03004KT 9999 FEW040 BKN060 17/12 Q1012 BLU

VFR

18°C / 11°C

[Mehr]
Wind 40º 4kt
Sichtweite >10km
Wetter -
Wolken Few Clouds 4200ft
Druck 1012
Änderung -
Roh ETNW 031820Z 04004KT 9999 FEW042 SCT060 BKN070 18/11 Q1012 BLU

VFR

19°C / 12°C

[Mehr]
Wind 360º 6kt
Sichtweite >10km
Wetter -
Wolken Few Clouds 4200ft
Druck 1012
Änderung -
Roh ETNW 031720Z 36006KT 9999 FEW042 BKN070 BKN100 19/12 Q1012 BLU

VFR

20°C / 11°C

[Mehr]
Wind 360º 4kt
Sichtweite >10km
Wetter -
Wolken Few Clouds 4200ft
Druck 1012
Änderung -
Roh ETNW 031620Z 36004KT 9999 FEW042 BKN060 20/11 Q1012 BLU

VFR

20°C / 10°C

[Mehr]
Wind 360º 4kt
Sichtweite >10km
Wetter -
Wolken Few Clouds 4200ft
Druck 1012
Änderung -
Roh ETNW 031520Z 36004KT 9999 FEW042 BKN060 20/10 Q1012 BLU

VFR

20°C / 10°C

[Mehr]
Wind 20º 2kt
Sichtweite >10km
Wetter -
Wolken Few Clouds 4200ft
Druck 1012
Änderung -
Roh ETNW 031500Z 02002KT 9999 FEW042 BKN060 20/10 Q1012 BLU FCST CNL

VFR

20°C / 10°C

[Mehr]
Wind variable 3kt
Sichtweite >10km
Wetter -
Wolken Few Clouds 4200ft
Druck 1012
Änderung -
Roh ETNW 031420Z VRB03KT 9999 FEW042 BKN050 20/10 Q1012 BLU BLU

VFR

20°C / 10°C

[Mehr]
Wind 240º 5kt
Sichtweite >10km
Wetter Light Showers Rain 3.00mm precipitation
Wolken Vertical Visibility of 0ft.
Druck 1012
Änderung -
Roh ETNW 031320Z 24005KT 9999 -SHRA SCT042 SCT050 BKN190 20/10 Q1012 BLU BLU

VFR

21°C / 10°C

[Mehr]
Wind 40º 3kt
Sichtweite >10km
Wetter -
Wolken Scattered Clouds 4400ft
Druck 1013
Änderung -
Roh ETNW 031220Z 04003KT 9999 SCT044 BKN190 21/10 Q1013 BLU BLU

VFR

21°C / 10°C

[Mehr]
Wind 360º 4kt
Sichtweite >10km
Wetter -
Wolken Scattered Clouds 4000ft
Druck 1013
Änderung -
Roh ETNW 031129Z 36004KT 9999 SCT040 BKN200 21/10 Q1013 BLU+BLU

TAF für Bordenau (ETNW)

From till


From till Wind 350º 5kt. Visibility 10km or more. Broken Clouds 6000ft.
With 30% probability, from till Wind 320º 8kt. Visibility 5000m. Light Showers Rain . Broken Clouds 4000ft.
Temporarly from till Wind 30º 10kt. Visibility 4000m. Showers Rain . Scattered Clouds 1500ft. Broken Clouds 3000ft.
With 30% probability, from till Wind 50º 15kt. Visibility 3000m. Thunderstorm Rain . Scattered Clouds 1200ft. Broken Clouds 2000ft.

Roh: TAF ETNW 040400Z 0405/0505 35005KT 9999 NSW BKN060 PROB30 0405/0412 32008KT 5000 -SHRA BKN040TCU TEMPO 0412/0421 03010KT 4000 SHRA SCT015 BKN030CB PROB30 0414/0419 05015KT 3000 TSRA SCT012 BKN020CB BY ETGL

rainNOW: Regenvorhersage für Bordenau und Umgebung (25km Radius)

0.0 mm
0.0 mm
0.0 mm
0.0 mm
0.0 mm
0.0 mm
0.0 mm
0.0 mm
0.0 mm
0.0 mm
0.0 mm
0.0 mm

Aktuelle Satelliten- und Regenbilder für Bordenau, Deutschland

Die Standortmarkierung ist platziert auf Bordenau. [Mehr]

Das Echtzeit-Satellitenbild kombiniert sichtbares Licht während des Tages mit Infrarotstrahlung während der Nacht. Nachts ist das Bild nicht dunkel, da Infrarotstrahlung Temperaturunterschiede erkennen kann. Leider sind niedrige Wolken und Nebel nur schwer von den Bodentemperaturen zu unterscheiden und können daher nachts fast unsichtbar sein. Meteosat-Satellitenbilder für Europa werden alle 5 Minuten in Echtzeit aktualisiert. Die Bilder GOES-16 / GOES-17 (Nord- und Südamerika) und Himawari (Asien) werden alle 10 Minuten aktualisiert.

Niederschläge werden von Radar und Satelliten berechnet. Nachts sind die Niederschlagsberechnungen durch die Satelliten weniger genau als tagsüber. Orangene Kreuze markieren Stellen, an denen Blitze aufgenommen wurden (über Europa).

Copyright 2021 EUMETSAT / meteoblue. Blitzdaten zur Verfügung gestellt von nowcast.

Radar für Bordenau

Nieselregen
Leicht
Moderat
Stark
Sehr stark
Hagel

Die Ortsmarkierung zeigt auf Bordenau. Diese Animation zeigt das Niederschlagsradar der letzten Stunde, sowie eine 2h Vorhersage. Nieselregen und leichter Schneefall können für das Radar unsichtbar sein. Die Niederschlagsintensität ist farbcodiert von Hellblau bis Lila.
Copyright 2021 Deutscher Wetterdienst / meteoblue.

Aktuelle Wetterlage und Warnungen

EUMETNET – MeteoAlarm

pictomap

Quelle: DWD

Zeitverzögerungen zwischen dieser Webseite und www.meteoalarm.eu sind möglich. Die aktuellsten Informationen zu Warnstufen, die von den Nationalen Meteorologischen Diensten veröffentlich werden, finden Sie auf www.meteoalarm.eu.